createdAt,value
2017-03-31T00:00:50.480Z,0
2017-03-31T00:01:50.785Z,0
2017-03-31T00:02:50.455Z,0
2017-03-31T00:03:50.443Z,0
2017-03-31T00:04:50.431Z,0
2017-03-31T00:05:50.736Z,0
2017-03-31T00:06:50.720Z,0
2017-03-31T00:07:50.706Z,0
2017-03-31T00:08:50.379Z,0
2017-03-31T00:09:50.366Z,0
2017-03-31T00:10:50.355Z,0
2017-03-31T00:11:50.396Z,0
2017-03-31T00:12:50.340Z,0
2017-03-31T00:13:50.628Z,0
2017-03-31T00:14:50.619Z,0
2017-03-31T00:15:50.293Z,0
2017-03-31T00:16:50.286Z,0
2017-03-31T00:17:50.268Z,0
2017-03-31T00:18:50.568Z,0
2017-03-31T00:19:50.250Z,0
2017-03-31T00:20:50.236Z,0
2017-03-31T00:21:50.534Z,0
2017-03-31T00:22:50.522Z,0
2017-03-31T00:23:50.506Z,0
2017-03-31T00:24:50.498Z,0
2017-03-31T00:25:50.483Z,0
2017-03-31T00:26:50.162Z,0
2017-03-31T00:27:50.453Z,0
2017-03-31T00:28:50.449Z,0
2017-03-31T00:29:50.121Z,0
2017-03-31T00:30:50.470Z,0
2017-03-31T00:31:50.106Z,0
2017-03-31T00:32:50.393Z,0
2017-03-31T00:33:50.384Z,0
2017-03-31T00:34:50.366Z,0
2017-03-31T00:35:50.351Z,0
2017-03-31T00:36:50.343Z,0
2017-03-31T00:37:50.378Z,0
2017-03-31T00:38:50.315Z,0
2017-03-31T00:39:50.303Z,0
2017-03-31T00:40:50.488Z,0
2017-03-31T00:41:50.480Z,0
2017-03-31T00:42:50.262Z,0
2017-03-31T00:43:50.256Z,0
2017-03-31T00:44:50.247Z,0
2017-03-31T00:45:50.228Z,0
2017-03-31T00:46:49.903Z,0
2017-03-31T00:47:49.902Z,0
2017-03-31T00:48:50.187Z,0
2017-03-31T00:49:49.866Z,0
2017-03-31T00:50:49.535Z,0
2017-03-31T00:51:49.864Z,0
2017-03-31T00:52:50.142Z,0
2017-03-31T00:53:49.493Z,0
2017-03-31T00:54:49.485Z,0
2017-03-31T00:55:49.787Z,0
2017-03-31T00:56:50.082Z,0
2017-03-31T00:57:49.448Z,0
2017-03-31T00:58:50.058Z,0
2017-03-31T00:59:49.420Z,0
2017-03-31T01:00:49.725Z,0
2017-03-31T01:01:49.705Z,0
2017-03-31T01:02:49.692Z,0
2017-03-31T01:03:49.684Z,0
2017-03-31T01:04:49.670Z,0
2017-03-31T01:05:49.979Z,0
2017-03-31T01:06:49.957Z,0
2017-03-31T01:07:49.945Z,0
2017-03-31T01:08:49.932Z,0
2017-03-31T01:09:49.918Z,0
2017-03-31T01:10:49.591Z,0
2017-03-31T01:11:49.577Z,0
2017-03-31T01:12:49.882Z,0
2017-03-31T01:13:49.865Z,0
2017-03-31T01:14:49.543Z,0
2017-03-31T01:15:49.843Z,0
2017-03-31T01:16:49.829Z,0
2017-03-31T01:17:49.812Z,0
2017-03-31T01:18:49.810Z,0
2017-03-31T01:19:49.799Z,0
2017-03-31T01:20:49.780Z,0
2017-03-31T01:21:49.766Z,0
2017-03-31T01:22:49.751Z,0
2017-03-31T01:23:49.738Z,0
2017-03-31T01:24:49.718Z,0
2017-03-31T01:25:49.087Z,0
2017-03-31T01:26:49.385Z,0
2017-03-31T01:27:49.689Z,0
2017-03-31T01:28:49.673Z,0
2017-03-31T01:29:49.709Z,0
2017-03-31T01:30:49.646Z,0
2017-03-31T01:31:49.631Z,0
2017-03-31T01:32:49.623Z,0
2017-03-31T01:33:49.297Z,0
2017-03-31T01:34:49.280Z,0
2017-03-31T01:35:49.586Z,0
2017-03-31T01:36:49.253Z,0
2017-03-31T01:37:49.245Z,0
2017-03-31T01:38:49.590Z,0
2017-03-31T01:39:49.529Z,0
2017-03-31T01:40:49.514Z,0
2017-03-31T01:41:49.502Z,0
2017-03-31T01:42:49.493Z,0
2017-03-31T01:43:49.479Z,0
2017-03-31T01:44:49.467Z,0
2017-03-31T01:45:49.454Z,0
2017-03-31T01:46:49.441Z,0
2017-03-31T01:47:49.453Z,0
2017-03-31T01:48:49.415Z,0
2017-03-31T01:49:49.403Z,0
2017-03-31T01:50:49.086Z,0
2017-03-31T01:51:49.393Z,0
2017-03-31T01:52:49.367Z,0
2017-03-31T01:53:49.345Z,0
2017-03-31T01:54:49.342Z,0
2017-03-31T01:55:49.323Z,0
2017-03-31T01:56:49.309Z,0
2017-03-31T01:57:49.291Z,0
2017-03-31T01:58:49.292Z,0
2017-03-31T01:59:49.270Z,0
2017-03-31T02:00:48.950Z,0
2017-03-31T02:01:48.933Z,0
2017-03-31T02:02:49.230Z,0
2017-03-31T02:03:49.222Z,0
2017-03-31T02:04:49.203Z,0
2017-03-31T02:05:49.194Z,0
2017-03-31T02:06:49.226Z,0
2017-03-31T02:07:49.166Z,0
2017-03-31T02:08:48.839Z,0
2017-03-31T02:09:48.825Z,0
2017-03-31T02:10:49.128Z,0
2017-03-31T02:11:49.118Z,0
2017-03-31T02:12:49.102Z,0
2017-03-31T02:13:49.082Z,0
2017-03-31T02:14:48.755Z,0
2017-03-31T02:15:48.748Z,0
2017-03-31T02:16:49.063Z,0
2017-03-31T02:17:49.039Z,0
2017-03-31T02:18:48.709Z,0
2017-03-31T02:19:49.007Z,0
2017-03-31T02:20:48.993Z,0
2017-03-31T02:21:48.981Z,0
2017-03-31T02:22:48.665Z,0
2017-03-31T02:23:48.955Z,0
2017-03-31T02:24:48.957Z,0
2017-03-31T02:25:48.621Z,0
2017-03-31T02:26:48.920Z,0
2017-03-31T02:27:48.900Z,0
2017-03-31T02:28:48.931Z,0
2017-03-31T02:29:48.877Z,0
2017-03-31T02:30:48.913Z,0
2017-03-31T02:31:48.540Z,0
2017-03-31T02:32:48.217Z,0
2017-03-31T02:33:48.831Z,0
2017-03-31T02:34:48.181Z,0
2017-03-31T02:35:48.800Z,0
2017-03-31T02:36:48.783Z,0
2017-03-31T02:37:48.142Z,0
2017-03-31T02:38:48.776Z,0
2017-03-31T02:39:48.775Z,0
2017-03-31T02:40:48.932Z,0
2017-03-31T02:41:48.412Z,0
2017-03-31T02:42:48.760Z,0
2017-03-31T02:43:48.689Z,0
2017-03-31T02:44:48.366Z,0
2017-03-31T02:45:48.672Z,0
2017-03-31T02:46:48.655Z,0
2017-03-31T02:47:48.324Z,0
2017-03-31T02:48:48.616Z,0
2017-03-31T02:49:48.307Z,0
2017-03-31T02:50:48.289Z,0
2017-03-31T02:51:48.271Z,0
2017-03-31T02:52:48.254Z,0
2017-03-31T02:53:48.552Z,0
2017-03-31T02:54:48.549Z,0
2017-03-31T02:55:48.536Z,0
2017-03-31T02:56:48.221Z,0
2017-03-31T02:57:48.506Z,0
2017-03-31T02:58:48.491Z,0
2017-03-31T02:59:48.471Z,0
2017-03-31T03:00:48.176Z,0
2017-03-31T03:01:48.503Z,0
2017-03-31T03:02:48.438Z,0
2017-03-31T03:03:48.418Z,0
2017-03-31T03:04:48.103Z,0
2017-03-31T03:05:48.398Z,0
2017-03-31T03:06:48.383Z,0
2017-03-31T03:07:48.364Z,0
2017-03-31T03:08:48.037Z,0
2017-03-31T03:09:48.023Z,0
2017-03-31T03:10:48.377Z,0
2017-03-31T03:11:48.309Z,0
2017-03-31T03:12:48.293Z,0
2017-03-31T03:13:47.663Z,0
2017-03-31T03:14:48.268Z,0
2017-03-31T03:15:48.257Z,0
2017-03-31T03:16:48.246Z,0
2017-03-31T03:17:48.244Z,0
2017-03-31T03:18:48.225Z,0
2017-03-31T03:19:48.259Z,0
2017-03-31T03:20:48.193Z,0
2017-03-31T03:21:48.180Z,0
2017-03-31T03:22:47.846Z,0
2017-03-31T03:23:48.172Z,0
2017-03-31T03:24:48.050Z,0
2017-03-31T03:25:47.806Z,0
2017-03-31T03:26:48.116Z,0
2017-03-31T03:27:47.777Z,0
2017-03-31T03:28:48.079Z,0
2017-03-31T03:29:48.064Z,0
2017-03-31T03:30:47.735Z,0
2017-03-31T03:31:48.036Z,0
2017-03-31T03:32:47.918Z,0
2017-03-31T03:33:48.010Z,0
2017-03-31T03:34:47.997Z,0
2017-03-31T03:35:47.983Z,0
2017-03-31T03:36:47.968Z,0
2017-03-31T03:37:47.955Z,0
2017-03-31T03:38:47.944Z,0
2017-03-31T03:39:47.941Z,0
2017-03-31T03:40:47.913Z,0
2017-03-31T03:41:47.903Z,0
2017-03-31T03:42:47.885Z,0
2017-03-31T03:43:47.869Z,0
2017-03-31T03:44:47.546Z,0
2017-03-31T03:45:47.849Z,0
2017-03-31T03:46:47.520Z,0
2017-03-31T03:47:47.506Z,0
2017-03-31T03:48:47.803Z,0
2017-03-31T03:49:47.788Z,0
2017-03-31T03:50:47.772Z,0
2017-03-31T03:51:47.446Z,0
2017-03-31T03:52:47.746Z,0
2017-03-31T03:53:47.738Z,0
2017-03-31T03:54:47.717Z,0
2017-03-31T03:55:47.706Z,0
2017-03-31T03:56:47.695Z,0
2017-03-31T03:57:47.679Z,0
2017-03-31T03:58:47.672Z,0
2017-03-31T03:59:47.701Z,0
2017-03-31T04:00:47.337Z,0
2017-03-31T04:01:47.624Z,0
2017-03-31T04:02:47.613Z,0
2017-03-31T04:03:47.598Z,0
2017-03-31T04:04:47.590Z,0
2017-03-31T04:05:47.573Z,0
2017-03-31T04:06:47.241Z,0
2017-03-31T04:07:47.231Z,0
2017-03-31T04:08:47.522Z,0
2017-03-31T04:09:47.514Z,0
2017-03-31T04:10:47.504Z,0
2017-03-31T04:11:47.211Z,0
2017-03-31T04:12:47.471Z,0
2017-03-31T04:13:47.143Z,0
2017-03-31T04:14:47.447Z,0
2017-03-31T04:15:47.427Z,0
2017-03-31T04:16:47.420Z,0
2017-03-31T04:17:47.401Z,0
2017-03-31T04:18:47.385Z,0
2017-03-31T04:19:47.380Z,0
2017-03-31T04:20:47.362Z,0
2017-03-31T04:21:47.350Z,0
2017-03-31T04:22:47.336Z,0
2017-03-31T04:23:47.003Z,0
2017-03-31T04:24:46.993Z,0
2017-03-31T04:25:47.289Z,0
2017-03-31T04:26:46.965Z,0
2017-03-31T04:27:46.645Z,0
2017-03-31T04:28:47.251Z,0
2017-03-31T04:29:47.247Z,0
2017-03-31T04:30:47.221Z,0
2017-03-31T04:31:46.892Z,0
2017-03-31T04:32:47.192Z,0
2017-03-31T04:33:46.868Z,0
2017-03-31T04:34:47.175Z,0
2017-03-31T04:35:46.839Z,0
2017-03-31T04:36:47.157Z,0
2017-03-31T04:37:46.811Z,0
2017-03-31T04:38:47.111Z,0
2017-03-31T04:39:47.093Z,4
2017-03-31T04:40:47.282Z,4
2017-03-31T04:41:46.752Z,0
2017-03-31T04:42:47.047Z,4
2017-03-31T04:43:46.741Z,4
2017-03-31T04:44:47.032Z,4
2017-03-31T04:45:46.696Z,4
2017-03-31T04:46:47.050Z,4
2017-03-31T04:47:46.672Z,8
2017-03-31T04:48:46.661Z,8
2017-03-31T04:49:46.640Z,12
2017-03-31T04:50:46.622Z,12
2017-03-31T04:51:46.606Z,12
2017-03-31T04:52:46.909Z,16
2017-03-31T04:53:46.585Z,24
2017-03-31T04:54:46.881Z,28
2017-03-31T04:55:46.552Z,32
2017-03-31T04:56:46.860Z,32
2017-03-31T04:57:46.838Z,40
2017-03-31T04:58:46.832Z,44
2017-03-31T04:59:46.863Z,52
2017-03-31T05:00:46.829Z,56
2017-03-31T05:01:46.787Z,64
2017-03-31T05:02:46.142Z,68
2017-03-31T05:03:46.757Z,76
2017-03-31T05:04:46.738Z,84
2017-03-31T05:05:46.463Z,92
2017-03-31T05:06:46.394Z,100
2017-03-31T05:07:46.787Z,112
2017-03-31T05:08:46.684Z,124
2017-03-31T05:09:46.384Z,136
2017-03-31T05:10:46.863Z,152
2017-03-31T05:11:46.639Z,164
2017-03-31T05:12:46.826Z,180
2017-03-31T05:13:46.612Z,196
2017-03-31T05:14:46.593Z,212
2017-03-31T05:15:46.265Z,232
2017-03-31T05:16:46.259Z,252
2017-03-31T05:17:46.243Z,272
2017-03-31T05:18:46.223Z,296
2017-03-31T05:19:46.526Z,316
2017-03-31T05:20:46.515Z,340
2017-03-31T05:21:46.189Z,360
2017-03-31T05:22:46.163Z,380
2017-03-31T05:23:45.531Z,404
2017-03-31T05:24:46.139Z,432
2017-03-31T05:25:46.121Z,460
2017-03-31T05:26:46.119Z,496
2017-03-31T05:27:45.782Z,536
2017-03-31T05:28:46.393Z,572
2017-03-31T05:29:45.753Z,616
2017-03-31T05:30:46.372Z,656
2017-03-31T05:31:46.387Z,696
2017-03-31T05:32:46.023Z,744
2017-03-31T05:33:46.023Z,792
2017-03-31T05:34:45.997Z,844
2017-03-31T05:35:46.298Z,892
2017-03-31T05:36:46.280Z,944
2017-03-31T05:37:45.645Z,988
2017-03-31T05:38:46.255Z,1036
2017-03-31T05:39:46.247Z,1076
2017-03-31T05:40:45.917Z,1116
2017-03-31T05:41:45.900Z,1160
2017-03-31T05:42:46.198Z,1204
2017-03-31T05:43:46.182Z,1252
2017-03-31T05:44:46.173Z,1300
2017-03-31T05:45:46.158Z,1348
2017-03-31T05:46:46.141Z,1404
2017-03-31T05:47:46.136Z,1456
2017-03-31T05:48:46.169Z,1512
2017-03-31T05:49:46.095Z,1564
2017-03-31T05:50:46.148Z,1620
2017-03-31T05:51:46.075Z,1668
2017-03-31T05:52:46.065Z,1724
2017-03-31T05:53:45.729Z,1772
2017-03-31T05:54:45.752Z,1820
2017-03-31T05:55:46.020Z,1872
2017-03-31T05:56:45.690Z,1920
2017-03-31T05:57:45.677Z,1980
2017-03-31T05:58:45.978Z,2040
2017-03-31T05:59:45.970Z,2100
2017-03-31T06:00:45.948Z,2160
2017-03-31T06:01:45.944Z,2220
2017-03-31T06:02:45.925Z,2280
2017-03-31T06:03:45.288Z,2336
2017-03-31T06:04:45.591Z,2396
2017-03-31T06:05:45.575Z,2456
2017-03-31T06:06:45.869Z,2508
2017-03-31T06:07:45.555Z,2564
2017-03-31T06:08:45.536Z,2608
2017-03-31T06:09:45.521Z,2656
2017-03-31T06:10:45.830Z,2696
2017-03-31T06:11:45.798Z,2736
2017-03-31T06:12:45.787Z,2772
2017-03-31T06:13:45.465Z,2812
2017-03-31T06:14:45.758Z,2860
2017-03-31T06:15:45.435Z,2912
2017-03-31T06:16:45.426Z,2964
2017-03-31T06:17:45.726Z,3016
2017-03-31T06:18:45.394Z,3060
2017-03-31T06:19:45.701Z,3116
2017-03-31T06:20:45.380Z,3156
2017-03-31T06:21:45.664Z,3204
2017-03-31T06:22:45.340Z,3260
2017-03-31T06:23:45.327Z,3320
2017-03-31T06:24:45.630Z,3376
2017-03-31T06:25:45.609Z,3436
2017-03-31T06:26:45.347Z,3500
2017-03-31T06:27:45.584Z,3576
2017-03-31T06:28:45.575Z,3652
2017-03-31T06:29:45.576Z,3732
2017-03-31T06:30:45.548Z,3816
2017-03-31T06:31:45.549Z,3900
2017-03-31T06:32:45.532Z,3984
2017-03-31T06:33:45.510Z,4056
2017-03-31T06:34:45.494Z,4124
2017-03-31T06:35:45.497Z,4176
2017-03-31T06:36:45.471Z,4220
2017-03-31T06:37:45.474Z,4260
2017-03-31T06:38:45.439Z,4280
2017-03-31T06:39:45.441Z,4300
2017-03-31T06:40:45.626Z,4336
2017-03-31T06:41:45.408Z,4360
2017-03-31T06:42:45.400Z,4388
2017-03-31T06:43:44.765Z,4416
2017-03-31T06:44:44.749Z,4440
2017-03-31T06:45:45.361Z,4472
2017-03-31T06:46:44.723Z,4508
2017-03-31T06:47:45.031Z,4552
2017-03-31T06:48:45.323Z,4600
2017-03-31T06:49:45.337Z,4668
2017-03-31T06:50:44.674Z,4728
2017-03-31T06:51:45.290Z,4780
2017-03-31T06:52:45.275Z,4852
2017-03-31T06:53:45.265Z,4928
2017-03-31T06:54:45.252Z,4992
2017-03-31T06:55:45.239Z,5052
2017-03-31T06:56:45.233Z,5104
2017-03-31T06:57:45.214Z,5156
2017-03-31T06:58:45.242Z,5180
2017-03-31T06:59:45.191Z,5192
2017-03-31T07:00:44.864Z,5232
2017-03-31T07:01:45.170Z,5272
2017-03-31T07:02:44.841Z,5312
2017-03-31T07:03:44.578Z,5352
2017-03-31T07:04:44.826Z,5388
2017-03-31T07:05:45.128Z,5456
2017-03-31T07:06:44.488Z,5532
2017-03-31T07:07:45.105Z,5612
2017-03-31T07:08:44.774Z,5696
2017-03-31T07:09:44.772Z,5772
2017-03-31T07:10:44.760Z,5844
2017-03-31T07:11:44.747Z,5884
2017-03-31T07:12:44.736Z,5912
2017-03-31T07:13:44.721Z,5924
2017-03-31T07:14:44.716Z,5924
2017-03-31T07:15:45.012Z,5924
2017-03-31T07:16:45.016Z,5924
2017-03-31T07:17:44.991Z,5924
2017-03-31T07:18:44.981Z,5924
2017-03-31T07:19:45.167Z,5944
2017-03-31T07:20:44.960Z,5968
2017-03-31T07:21:44.957Z,5944
2017-03-31T07:22:44.981Z,5924
2017-03-31T07:23:44.929Z,5948
2017-03-31T07:24:44.914Z,6064
2017-03-31T07:25:44.948Z,6132
2017-03-31T07:26:44.895Z,6196
2017-03-31T07:27:44.884Z,6256
2017-03-31T07:28:44.870Z,6344
2017-03-31T07:29:44.595Z,6416
2017-03-31T07:30:44.589Z,6492
2017-03-31T07:31:44.839Z,6588
2017-03-31T07:32:44.830Z,6720
2017-03-31T07:33:44.817Z,6836
2017-03-31T07:34:44.810Z,6912
2017-03-31T07:35:44.489Z,7008
2017-03-31T07:36:44.787Z,7152
2017-03-31T07:37:44.775Z,7260
2017-03-31T07:38:44.459Z,7348
2017-03-31T07:39:44.766Z,7428
2017-03-31T07:40:44.435Z,7476
2017-03-31T07:41:44.739Z,7568
2017-03-31T07:42:44.727Z,7736
2017-03-31T07:43:44.721Z,7844
2017-03-31T07:44:44.708Z,7912
2017-03-31T07:45:44.386Z,7928
2017-03-31T07:46:44.383Z,7900
2017-03-31T07:47:44.394Z,7868
2017-03-31T07:48:44.699Z,7892
2017-03-31T07:49:44.345Z,7960
2017-03-31T07:50:44.349Z,8040
2017-03-31T07:51:44.647Z,8112
2017-03-31T07:52:44.311Z,8240
2017-03-31T07:53:44.623Z,8316
2017-03-31T07:54:44.297Z,8364
2017-03-31T07:55:44.297Z,8364
2017-03-31T07:56:44.600Z,8368
2017-03-31T07:57:44.630Z,8428
2017-03-31T07:58:44.255Z,8552
2017-03-31T07:59:44.620Z,8664
2017-03-31T08:00:44.550Z,8816
2017-03-31T08:01:44.242Z,8892
2017-03-31T08:02:44.539Z,9000
2017-03-31T08:03:44.524Z,9120
2017-03-31T08:04:44.222Z,9232
2017-03-31T08:05:43.880Z,9328
2017-03-31T08:06:44.496Z,9536
2017-03-31T08:07:44.515Z,9712
2017-03-31T08:08:44.172Z,9860
2017-03-31T08:09:44.469Z,10048
2017-03-31T08:10:44.153Z,10236
2017-03-31T08:11:43.834Z,10388
2017-03-31T08:12:44.129Z,10596
2017-03-31T08:13:44.114Z,10744
2017-03-31T08:14:44.442Z,10948
2017-03-31T08:15:44.102Z,11268
2017-03-31T08:16:44.102Z,12756
2017-03-31T08:17:44.396Z,17696
2017-03-31T08:18:44.399Z,18176
2017-03-31T08:19:44.389Z,17248
2017-03-31T08:20:44.376Z,15492
2017-03-31T08:21:44.371Z,17152
2017-03-31T08:22:44.374Z,18688
2017-03-31T08:23:44.356Z,19776
2017-03-31T08:24:44.029Z,19136
2017-03-31T08:25:44.031Z,18208
2017-03-31T08:26:44.022Z,15744
2017-03-31T08:27:44.011Z,17312
2017-03-31T08:28:44.316Z,16672
2017-03-31T08:29:44.308Z,17312
2017-03-31T08:30:43.982Z,19392
2017-03-31T08:31:44.305Z,18656
2017-03-31T08:32:44.280Z,18176
2017-03-31T08:33:43.962Z,18304
2017-03-31T08:34:43.956Z,18752
2017-03-31T08:35:43.954Z,17408
2017-03-31T08:36:43.951Z,17600
2017-03-31T08:37:43.950Z,16416
2017-03-31T08:38:44.247Z,16608
2017-03-31T08:39:43.948Z,15432
2017-03-31T08:40:44.229Z,16928
2017-03-31T08:41:44.230Z,16672
2017-03-31T08:42:44.235Z,16800
2017-03-31T08:43:43.897Z,15592
2017-03-31T08:44:44.224Z,14964
2017-03-31T08:45:44.198Z,13900
2017-03-31T08:46:43.878Z,13316
2017-03-31T08:47:43.876Z,13016
2017-03-31T08:48:43.871Z,13532
2017-03-31T08:49:44.191Z,13784
2017-03-31T08:50:43.853Z,13368
2017-03-31T08:51:43.844Z,13480
2017-03-31T08:52:43.861Z,13148
2017-03-31T08:53:44.148Z,13568
2017-03-31T08:54:44.343Z,13488
2017-03-31T08:55:44.134Z,14004
2017-03-31T08:56:44.127Z,13840
2017-03-31T08:57:44.118Z,14192
2017-03-31T08:58:43.797Z,13756
2017-03-31T08:59:44.107Z,14444
2017-03-31T09:00:44.099Z,15172
2017-03-31T09:01:43.796Z,19328
2017-03-31T09:02:44.093Z,23328
2017-03-31T09:03:43.450Z,25376
2017-03-31T09:04:44.075Z,28512
2017-03-31T09:05:44.073Z,25984
2017-03-31T09:06:44.073Z,24672
2017-03-31T09:07:44.055Z,22592
2017-03-31T09:08:44.046Z,22944
2017-03-31T09:09:43.781Z,22848
2017-03-31T09:10:44.058Z,22592
2017-03-31T09:11:44.033Z,23200
2017-03-31T09:12:44.021Z,21120
2017-03-31T09:13:44.013Z,21984
2017-03-31T09:14:44.007Z,23456
2017-03-31T09:15:44.010Z,23392
2017-03-31T09:16:44.049Z,22304
2017-03-31T09:17:43.676Z,20864
2017-03-31T09:18:44.002Z,22496
2017-03-31T09:19:43.978Z,24480
2017-03-31T09:20:43.974Z,25792
2017-03-31T09:21:43.655Z,22944
2017-03-31T09:22:43.968Z,19392
2017-03-31T09:23:44.002Z,19232
2017-03-31T09:24:43.964Z,19296
2017-03-31T09:25:43.947Z,20448
2017-03-31T09:26:43.994Z,24864
2017-03-31T09:27:43.948Z,24128
2017-03-31T09:28:43.927Z,25856
2017-03-31T09:29:43.623Z,21248
2017-03-31T09:30:43.919Z,21440
2017-03-31T09:31:43.914Z,22080
2017-03-31T09:32:43.904Z,25632
2017-03-31T09:33:43.902Z,25248
2017-03-31T09:34:43.898Z,24096
2017-03-31T09:35:43.576Z,26496
2017-03-31T09:36:43.886Z,23968
2017-03-31T09:37:43.574Z,21088
2017-03-31T09:38:43.877Z,21376
2017-03-31T09:39:44.071Z,23072
2017-03-31T09:40:43.883Z,23104
2017-03-31T09:41:43.864Z,23200
2017-03-31T09:42:43.551Z,23936
2017-03-31T09:43:43.540Z,20800
2017-03-31T09:44:43.264Z,20800
2017-03-31T09:45:43.836Z,19904
2017-03-31T09:46:43.836Z,18880
2017-03-31T09:47:43.831Z,18912
2017-03-31T09:48:43.824Z,19552
2017-03-31T09:49:43.508Z,22144
2017-03-31T09:50:43.817Z,21984
2017-03-31T09:51:43.820Z,27584
2017-03-31T09:52:43.804Z,26240
2017-03-31T09:53:43.795Z,28064
2017-03-31T09:54:43.479Z,23136
2017-03-31T09:55:43.792Z,20672
2017-03-31T09:56:43.785Z,22240
2017-03-31T09:57:43.780Z,21504
2017-03-31T09:58:43.464Z,20000
2017-03-31T09:59:43.783Z,18848
2017-03-31T10:00:43.769Z,18464
2017-03-31T10:01:43.762Z,21184
2017-03-31T10:02:43.786Z,21280
2017-03-31T10:03:43.755Z,20192
2017-03-31T10:04:43.448Z,22720
2017-03-31T10:05:43.452Z,24192
2017-03-31T10:06:43.438Z,26752
2017-03-31T10:07:43.437Z,25120
2017-03-31T10:08:43.732Z,21344
2017-03-31T10:09:43.726Z,21504
2017-03-31T10:10:43.727Z,24352
2017-03-31T10:11:43.715Z,20000
2017-03-31T10:12:43.726Z,18944
2017-03-31T10:13:43.705Z,18912
2017-03-31T10:14:43.706Z,20672
2017-03-31T10:15:43.699Z,24672
2017-03-31T10:16:43.694Z,24352
2017-03-31T10:17:43.707Z,27808
2017-03-31T10:18:43.682Z,24768
2017-03-31T10:19:43.690Z,23200
2017-03-31T10:20:43.678Z,25568
2017-03-31T10:21:43.769Z,25312
2017-03-31T10:22:43.665Z,25568
2017-03-31T10:23:43.665Z,24576
2017-03-31T10:24:43.659Z,23872
2017-03-31T10:25:43.660Z,23552
2017-03-31T10:26:43.657Z,25472
2017-03-31T10:27:43.649Z,23104
2017-03-31T10:28:43.324Z,22688
2017-03-31T10:29:43.633Z,23104
2017-03-31T10:30:43.630Z,23648
2017-03-31T10:31:43.629Z,22880
2017-03-31T10:32:43.620Z,35232
2017-03-31T10:33:43.617Z,29888
2017-03-31T10:34:43.611Z,26688
2017-03-31T10:35:43.299Z,24864
2017-03-31T10:36:43.605Z,22432
2017-03-31T10:37:43.599Z,21920
2017-03-31T10:38:43.595Z,21376
2017-03-31T10:39:43.598Z,19488
2017-03-31T10:40:43.664Z,17952
2017-03-31T10:41:43.782Z,18304
2017-03-31T10:42:43.618Z,18400
2017-03-31T10:43:43.578Z,17696
2017-03-31T10:44:43.573Z,17760
2017-03-31T10:45:43.572Z,18528
2017-03-31T10:46:43.566Z,20032
2017-03-31T10:47:43.556Z,20960
2017-03-31T10:48:43.240Z,24352
2017-03-31T10:49:43.555Z,28832
2017-03-31T10:50:43.545Z,30176
2017-03-31T10:51:43.224Z,33184
2017-03-31T10:52:43.530Z,29696
2017-03-31T10:53:43.558Z,30016
2017-03-31T10:54:43.521Z,27776
2017-03-31T10:55:43.531Z,27712
2017-03-31T10:56:43.564Z,20512
2017-03-31T10:57:43.515Z,19872
2017-03-31T10:58:43.504Z,18592
2017-03-31T10:59:43.512Z,21152
2017-03-31T11:00:43.186Z,19552
2017-03-31T11:01:43.500Z,20064
2017-03-31T11:02:43.490Z,22976
2017-03-31T11:03:43.488Z,30272
2017-03-31T11:04:43.484Z,31680
2017-03-31T11:05:43.724Z,40928
2017-03-31T11:06:43.474Z,39200
2017-03-31T11:07:43.473Z,34080
2017-03-31T11:08:43.464Z,30080
2017-03-31T11:09:42.856Z,27776
2017-03-31T11:10:42.843Z,23008
2017-03-31T11:11:43.460Z,20128
2017-03-31T11:12:43.450Z,19392
2017-03-31T11:13:43.474Z,18624
2017-03-31T11:14:43.436Z,16672
2017-03-31T11:15:43.128Z,15876
2017-03-31T11:16:43.433Z,18464
2017-03-31T11:17:43.118Z,31744
2017-03-31T11:18:43.418Z,37760
2017-03-31T11:19:43.103Z,43136
2017-03-31T11:20:43.418Z,42688
2017-03-31T11:21:43.408Z,39168
2017-03-31T11:22:43.421Z,30304
2017-03-31T11:23:43.447Z,40512
2017-03-31T11:24:43.396Z,48864
2017-03-31T11:25:43.595Z,49248
2017-03-31T11:26:43.076Z,67552
2017-03-31T11:27:43.443Z,73152
2017-03-31T11:28:43.399Z,77344
2017-03-31T11:29:43.381Z,74656
2017-03-31T11:30:43.386Z,73600
2017-03-31T11:31:43.371Z,71584
2017-03-31T11:32:43.057Z,75680
2017-03-31T11:33:43.369Z,65536
2017-03-31T11:34:43.057Z,76672
2017-03-31T11:35:43.418Z,66560
2017-03-31T11:36:43.372Z,66944
2017-03-31T11:37:43.061Z,73408
2017-03-31T11:38:43.365Z,71904
2017-03-31T11:39:43.043Z,67520
2017-03-31T11:40:43.371Z,60032
2017-03-31T11:41:42.734Z,61408
2017-03-31T11:42:43.060Z,60768
2017-03-31T11:43:43.050Z,49632
2017-03-31T11:44:43.378Z,54720
2017-03-31T11:45:43.364Z,54880
2017-03-31T11:46:43.361Z,63616
2017-03-31T11:47:43.047Z,64992
2017-03-31T11:48:42.732Z,62560
2017-03-31T11:49:43.052Z,50656
2017-03-31T11:50:43.353Z,60608
2017-03-31T11:51:43.410Z,61824
2017-03-31T11:52:43.359Z,65984
2017-03-31T11:53:43.055Z,54496
2017-03-31T11:54:43.366Z,53248
2017-03-31T11:55:43.050Z,64704
2017-03-31T11:56:43.361Z,81312
2017-03-31T11:57:42.733Z,60416
2017-03-31T11:58:43.363Z,73216
2017-03-31T11:59:43.371Z,61664
2017-03-31T12:00:43.086Z,63136
2017-03-31T12:01:43.365Z,60736
2017-03-31T12:02:43.365Z,57600
2017-03-31T12:03:43.364Z,37728
2017-03-31T12:04:43.363Z,43616
2017-03-31T12:05:43.371Z,49344
2017-03-31T12:06:42.742Z,52352
2017-03-31T12:07:43.364Z,55232
2017-03-31T12:08:42.736Z,56192
2017-03-31T12:09:43.370Z,61376
2017-03-31T12:10:43.050Z,63904
2017-03-31T12:11:43.054Z,67040
2017-03-31T12:12:42.739Z,57056
2017-03-31T12:13:43.364Z,63040
2017-03-31T12:14:43.053Z,69440
2017-03-31T12:15:43.050Z,71648
2017-03-31T12:16:43.087Z,79712
2017-03-31T12:17:42.742Z,73664
2017-03-31T12:18:43.059Z,85984
2017-03-31T12:19:43.368Z,85344
2017-03-31T12:20:43.372Z,84096
2017-03-31T12:21:43.062Z,82208
2017-03-31T12:22:43.057Z,81920
2017-03-31T12:23:43.052Z,80864
2017-03-31T12:24:43.372Z,80480
2017-03-31T12:25:43.054Z,76960
2017-03-31T12:26:43.426Z,78048
2017-03-31T12:27:43.375Z,77472
2017-03-31T12:28:43.057Z,83904
2017-03-31T12:29:43.385Z,85312
2017-03-31T12:30:43.064Z,69760
2017-03-31T12:31:43.071Z,81632
2017-03-31T12:32:43.382Z,82720
2017-03-31T12:33:43.579Z,82592
2017-03-31T12:34:43.076Z,80704
2017-03-31T12:35:43.387Z,80320
2017-03-31T12:36:43.387Z,80000
2017-03-31T12:37:43.378Z,80064
2017-03-31T12:38:43.074Z,78944
2017-03-31T12:39:43.395Z,79904
2017-03-31T12:40:43.404Z,82304
2017-03-31T12:41:43.812Z,79680
2017-03-31T12:42:43.090Z,78624
2017-03-31T12:43:43.397Z,79040
2017-03-31T12:44:43.104Z,76224
2017-03-31T12:45:43.408Z,72576
2017-03-31T12:46:43.103Z,70400
2017-03-31T12:47:43.126Z,67104
2017-03-31T12:48:43.405Z,61888
2017-03-31T12:49:43.099Z,61568
2017-03-31T12:50:43.417Z,68352
2017-03-31T12:51:43.413Z,79520
2017-03-31T12:52:43.102Z,82176
2017-03-31T12:53:43.106Z,79584
2017-03-31T12:54:43.426Z,76576
2017-03-31T12:55:43.432Z,68640
2017-03-31T12:56:43.426Z,76192
2017-03-31T12:57:43.435Z,81056
2017-03-31T12:58:43.427Z,84000
2017-03-31T12:59:43.435Z,81952
2017-03-31T13:00:43.441Z,77632
2017-03-31T13:01:43.446Z,47712
2017-03-31T13:02:43.130Z,41248
2017-03-31T13:03:43.123Z,54048
2017-03-31T13:04:43.450Z,70464
2017-03-31T13:05:43.445Z,67936
2017-03-31T13:06:43.137Z,68768
2017-03-31T13:07:43.448Z,74976
2017-03-31T13:08:43.451Z,78592
2017-03-31T13:09:42.829Z,80672
2017-03-31T13:10:43.150Z,77984
2017-03-31T13:11:43.142Z,79872
2017-03-31T13:12:43.139Z,76032
2017-03-31T13:13:43.456Z,77856
2017-03-31T13:14:43.465Z,72768
2017-03-31T13:15:43.462Z,72448
2017-03-31T13:16:43.664Z,77280
2017-03-31T13:17:43.478Z,74880
2017-03-31T13:18:43.470Z,74720
2017-03-31T13:19:43.470Z,71040
2017-03-31T13:20:43.518Z,60640
2017-03-31T13:21:43.730Z,70912
2017-03-31T13:22:43.194Z,63392
2017-03-31T13:23:43.477Z,58880
2017-03-31T13:24:43.493Z,57600
2017-03-31T13:25:43.476Z,34240
2017-03-31T13:26:43.480Z,45984
2017-03-31T13:27:43.482Z,40736
2017-03-31T13:28:43.174Z,47616
2017-03-31T13:29:43.491Z,48832
2017-03-31T13:30:43.484Z,33152
2017-03-31T13:31:43.177Z,38624
2017-03-31T13:32:43.493Z,39232
2017-03-31T13:33:43.567Z,45952
2017-03-31T13:34:43.484Z,48320
2017-03-31T13:35:43.494Z,55456
2017-03-31T13:36:43.489Z,52704
2017-03-31T13:37:43.486Z,52448
2017-03-31T13:38:43.494Z,49792